createdAt,value
2022-09-18T00:01:59.639Z,45.30
2022-09-18T00:07:04.164Z,45.30
2022-09-18T00:12:07.457Z,45.50
2022-09-18T00:17:10.559Z,45.30
2022-09-18T00:22:15.005Z,45.20
2022-09-18T00:27:18.063Z,45.30
2022-09-18T00:32:21.133Z,45.10
2022-09-18T00:37:25.583Z,45.10
2022-09-18T00:42:28.730Z,45.10
2022-09-18T00:47:34.909Z,44.90
2022-09-18T00:52:51.065Z,45.00
2022-09-18T00:57:57.567Z,45.10
2022-09-18T01:03:02.016Z,44.90
2022-09-18T01:08:20.206Z,44.90
2022-09-18T01:13:31.760Z,45.20
2022-09-18T01:18:44.858Z,45.30
2022-09-18T01:24:15.225Z,45.60
2022-09-18T01:29:26.663Z,45.70
2022-09-18T01:34:35.685Z,45.80
2022-09-18T01:39:42.393Z,45.90
2022-09-18T01:44:48.656Z,45.70
2022-09-18T01:49:54.965Z,45.60
2022-09-18T01:55:01.412Z,45.50
2022-09-18T02:00:09.944Z,45.50
2022-09-18T02:05:21.679Z,45.70
2022-09-18T02:10:26.654Z,45.70
2022-09-18T02:15:36.912Z,45.50
2022-09-18T02:20:44.470Z,45.60
2022-09-18T02:25:52.553Z,45.80
2022-09-18T02:30:58.481Z,45.90
2022-09-18T02:36:25.897Z,45.70
2022-09-18T02:41:41.405Z,46.00
2022-09-18T02:46:58.622Z,46.10
2022-09-18T02:52:05.525Z,46.40
2022-09-18T02:57:15.259Z,46.20
2022-09-18T03:02:22.908Z,46.20
2022-09-18T03:07:26.288Z,46.60
2022-09-18T03:12:29.378Z,46.10
2022-09-18T03:17:33.807Z,46.20
2022-09-18T03:22:36.973Z,46.40
2022-09-18T03:27:40.097Z,46.90
2022-09-18T03:32:44.516Z,46.30
2022-09-18T03:37:47.582Z,46.50
2022-09-18T03:42:50.834Z,46.40
2022-09-18T03:47:55.313Z,46.50
2022-09-18T03:52:58.512Z,46.60
2022-09-18T03:58:01.657Z,46.40
2022-09-18T04:03:06.482Z,46.40
2022-09-18T04:08:09.677Z,46.70
2022-09-18T04:13:12.771Z,46.40
2022-09-18T04:18:17.273Z,46.50
2022-09-18T04:23:20.720Z,47.00
2022-09-18T04:28:26.446Z,46.60
2022-09-18T04:33:31.045Z,46.60
2022-09-18T04:38:34.105Z,46.90
2022-09-18T04:43:37.178Z,46.60
2022-09-18T04:48:41.797Z,46.50
2022-09-18T04:53:44.867Z,46.80
2022-09-18T04:58:47.956Z,46.30
2022-09-18T05:03:52.423Z,46.30
2022-09-18T05:08:55.533Z,46.40
2022-09-18T05:13:58.690Z,46.30
2022-09-18T05:19:03.156Z,46.40
2022-09-18T05:24:06.557Z,46.60
2022-09-18T05:29:09.792Z,46.60
2022-09-18T05:34:14.237Z,46.70
2022-09-18T05:39:17.866Z,46.60
2022-09-18T05:44:21.267Z,46.60
2022-09-18T05:49:25.789Z,46.50
2022-09-18T05:54:28.874Z,46.80
2022-09-18T05:59:31.908Z,47.00
2022-09-18T06:04:36.440Z,46.70
2022-09-18T06:09:39.789Z,46.90
2022-09-18T06:14:42.866Z,46.70
2022-09-18T06:19:47.414Z,46.70
2022-09-18T06:24:50.571Z,47.40
2022-09-18T06:29:54.161Z,46.70
2022-09-18T06:34:58.673Z,46.60
2022-09-18T06:40:01.980Z,46.60
2022-09-18T06:45:05.807Z,46.30
2022-09-18T06:50:10.773Z,46.50
2022-09-18T06:55:14.246Z,46.50
2022-09-18T07:00:17.537Z,46.40
2022-09-18T07:05:22.016Z,46.60
2022-09-18T07:10:25.518Z,46.90
2022-09-18T07:15:29.266Z,46.80
2022-09-18T07:20:33.803Z,46.80
2022-09-18T07:25:37.001Z,47.10
2022-09-18T07:30:41.338Z,47.00
2022-09-18T07:35:45.829Z,47.20
2022-09-18T07:40:48.916Z,47.30
2022-09-18T07:45:51.965Z,47.10
2022-09-18T07:50:59.335Z,47.30
2022-09-18T07:56:02.985Z,47.50
2022-09-18T08:01:07.150Z,47.30
2022-09-18T08:06:11.755Z,47.40
2022-09-18T08:11:14.925Z,47.50
2022-09-18T08:16:18.457Z,47.60
2022-09-18T08:21:23.062Z,47.50
2022-09-18T08:26:26.657Z,47.80
2022-09-18T08:31:29.875Z,47.30
2022-09-18T08:36:34.423Z,47.40
2022-09-18T08:41:56.798Z,47.60
2022-09-18T08:47:05.792Z,48.00
2022-09-18T08:52:15.194Z,47.90
2022-09-18T08:57:22.330Z,48.00
2022-09-18T09:02:38.507Z,47.90
2022-09-18T09:08:05.821Z,48.20
2022-09-18T09:13:31.789Z,48.30
2022-09-18T09:18:45.375Z,48.30
2022-09-18T09:24:04.913Z,48.40
2022-09-18T09:29:15.397Z,48.70
2022-09-18T09:34:23.476Z,48.90
2022-09-18T09:39:33.117Z,48.90
2022-09-18T09:44:41.231Z,48.90
2022-09-18T09:49:51.877Z,48.90
2022-09-18T09:54:58.654Z,49.50
2022-09-18T10:00:09.494Z,49.30
2022-09-18T10:05:23.332Z,49.60
2022-09-18T10:10:34.577Z,49.70
2022-09-18T10:15:40.463Z,49.90
2022-09-18T10:20:45.437Z,48.80
2022-09-18T10:25:53.553Z,49.00
2022-09-18T10:31:00.378Z,49.40
2022-09-18T10:36:10.902Z,49.60
2022-09-18T10:41:31.468Z,48.80
2022-09-18T10:46:37.035Z,49.20
2022-09-18T10:51:40.318Z,48.50
2022-09-18T10:56:44.905Z,48.60
2022-09-18T11:01:48.080Z,48.20
2022-09-18T11:06:52.505Z,47.90
2022-09-18T11:11:57.157Z,47.90
2022-09-18T11:17:03.117Z,47.90
2022-09-18T11:22:08.370Z,47.50
2022-09-18T11:27:21.640Z,47.30
2022-09-18T11:32:26.949Z,46.70
2022-09-18T11:37:41.489Z,46.80
2022-09-18T11:42:48.917Z,46.60
2022-09-18T11:47:58.555Z,46.50
2022-09-18T11:53:06.739Z,46.60
2022-09-18T11:58:17.852Z,46.50
2022-09-18T12:03:25.845Z,46.80
2022-09-18T12:08:41.293Z,46.30
2022-09-18T12:13:54.365Z,46.10
2022-09-18T12:19:03.933Z,46.30
2022-09-18T12:24:13.873Z,46.00
2022-09-18T12:29:28.754Z,45.40
2022-09-18T12:34:40.712Z,45.20
2022-09-18T12:40:05.697Z,44.60
2022-09-18T12:45:37.198Z,44.70
2022-09-18T12:50:55.957Z,45.10
2022-09-18T12:56:15.732Z,44.60
2022-09-18T13:01:28.141Z,44.80
2022-09-18T13:06:39.273Z,44.80
2022-09-18T13:11:47.968Z,44.80
2022-09-18T13:16:57.699Z,44.90
2022-09-18T13:22:06.848Z,44.30
2022-09-18T13:27:13.206Z,43.60
2022-09-18T13:32:20.351Z,43.40
2022-09-18T13:37:26.008Z,42.60
2022-09-18T13:42:31.453Z,43.40
2022-09-18T13:47:58.659Z,43.50
2022-09-18T13:53:04.055Z,42.00
2022-09-18T13:58:39.372Z,43.40
2022-09-18T14:03:44.127Z,43.00
2022-09-18T14:08:47.272Z,42.50
2022-09-18T14:13:54.381Z,43.00
2022-09-18T14:19:04.054Z,42.40
2022-09-18T14:24:37.641Z,42.10
2022-09-18T14:29:41.277Z,41.90
2022-09-18T14:34:45.736Z,42.60
2022-09-18T14:39:49.057Z,42.10
2022-09-18T14:44:58.794Z,42.40
2022-09-18T14:50:03.290Z,41.50
2022-09-18T14:55:12.019Z,42.10
2022-09-18T15:00:20.124Z,41.20
2022-09-18T15:05:26.304Z,40.90
2022-09-18T15:10:29.953Z,41.00
2022-09-18T15:15:35.296Z,40.90
2022-09-18T15:20:47.599Z,40.10
2022-09-18T15:25:54.597Z,40.40
2022-09-18T15:31:00.479Z,40.30
2022-09-18T15:36:06.197Z,40.50
2022-09-18T15:41:24.239Z,39.90
2022-09-18T15:46:30.536Z,39.50
2022-09-18T15:51:38.598Z,40.30
2022-09-18T15:56:51.545Z,39.90
2022-09-18T16:01:54.755Z,39.40
2022-09-18T16:07:02.208Z,40.40
2022-09-18T16:12:40.951Z,39.50
2022-09-18T16:18:03.824Z,39.70
2022-09-18T16:23:20.922Z,38.80
2022-09-18T16:28:26.990Z,39.00
2022-09-18T16:33:32.462Z,39.70
2022-09-18T16:38:37.046Z,39.70
2022-09-18T16:43:40.120Z,39.50
2022-09-18T16:48:43.325Z,40.10
2022-09-18T16:53:47.805Z,40.00
2022-09-18T16:58:52.896Z,39.50
2022-09-18T17:03:56.037Z,39.20
2022-09-18T17:09:00.573Z,39.70
2022-09-18T17:14:04.826Z,39.40
2022-09-18T17:19:08.059Z,39.80
2022-09-18T17:24:13.219Z,39.80
2022-09-18T17:29:16.341Z,40.10
2022-09-18T17:34:19.581Z,39.80
2022-09-18T17:39:24.057Z,39.80
2022-09-18T17:44:28.073Z,39.40
2022-09-18T17:49:32.785Z,39.70
2022-09-18T17:54:37.606Z,39.30
2022-09-18T17:59:41.905Z,39.00
2022-09-18T18:04:45.188Z,39.50
2022-09-18T18:09:49.648Z,39.30
2022-09-18T18:14:52.992Z,39.00
2022-09-18T18:19:57.808Z,39.40
2022-09-18T18:25:02.589Z,39.50
2022-09-18T18:30:08.854Z,39.00
2022-09-18T18:35:12.111Z,39.30
2022-09-18T18:40:17.234Z,39.50
2022-09-18T18:45:20.639Z,39.30
2022-09-18T18:50:23.703Z,39.60
2022-09-18T18:55:28.280Z,39.60
2022-09-18T19:00:31.501Z,39.50
2022-09-18T19:05:36.264Z,39.90
2022-09-18T19:10:40.905Z,40.00
2022-09-18T19:15:43.964Z,39.80
2022-09-18T19:20:49.762Z,40.10
2022-09-18T19:25:57.146Z,40.00
2022-09-18T19:31:04.356Z,40.50
2022-09-18T19:36:08.737Z,40.30
2022-09-18T19:41:19.340Z,40.60
2022-09-18T19:46:26.597Z,40.50
2022-09-18T19:51:31.202Z,40.80
2022-09-18T19:56:42.891Z,41.70
2022-09-18T20:01:46.672Z,40.90
2022-09-18T20:06:50.081Z,41.00
2022-09-18T20:11:54.535Z,41.00
2022-09-18T20:16:57.636Z,41.10
2022-09-18T20:22:03.015Z,41.50
2022-09-18T20:27:15.412Z,41.40
2022-09-18T20:32:19.220Z,41.50
2022-09-18T20:37:24.453Z,41.40
2022-09-18T20:42:31.662Z,41.50
2022-09-18T20:47:36.595Z,41.80
2022-09-18T20:52:43.056Z,41.70
2022-09-18T20:57:47.943Z,41.70
2022-09-18T21:02:53.331Z,41.80
2022-09-18T21:07:59.817Z,41.70
2022-09-18T21:13:05.054Z,41.80
2022-09-18T21:18:11.195Z,42.10
2022-09-18T21:23:31.676Z,42.00
2022-09-18T21:28:36.335Z,42.30
2022-09-18T21:33:39.980Z,42.70
2022-09-18T21:38:43.229Z,42.50
2022-09-18T21:43:51.077Z,42.90
2022-09-18T21:48:54.669Z,43.20
2022-09-18T21:53:59.092Z,43.10
2022-09-18T21:59:05.371Z,43.10
2022-09-18T22:04:08.864Z,43.10
2022-09-18T22:09:14.500Z,43.00
2022-09-18T22:14:20.919Z,43.00
2022-09-18T22:19:24.093Z,43.50
2022-09-18T22:24:28.514Z,43.00
2022-09-18T22:29:35.502Z,43.00
2022-09-18T22:34:38.624Z,43.70
2022-09-18T22:39:41.795Z,43.20
2022-09-18T22:44:46.280Z,43.50
2022-09-18T22:49:49.367Z,44.00
2022-09-18T22:54:52.442Z,43.90
2022-09-18T22:59:57.921Z,44.10
2022-09-18T23:05:01.230Z,44.60
2022-09-18T23:10:08.061Z,43.90
2022-09-18T23:15:12.806Z,44.60
2022-09-18T23:20:16.425Z,44.30
2022-09-18T23:25:19.501Z,44.30
2022-09-18T23:30:25.633Z,44.20
2022-09-18T23:35:29.092Z,44.80
2022-09-18T23:40:32.251Z,44.50
2022-09-18T23:45:36.871Z,44.60
2022-09-18T23:50:43.236Z,44.90
2022-09-18T23:55:46.518Z,43.40
